Stickney, South Dakota
Current Conditions -  °F | °C
As of 6:53 AM on Thursday 27 Nov 2014 (Local Time) from KMHE Reporting Station
Clear Clear  
Wind Chill: -13°   Ceiling: Unl
Heat Index:   Visibility: 10mi
Dew Point: -6°   Wind: 7mph
Humidity: 76%   Direction: 80°E
Pressure: 30.47"   Gusts: NA
Location:  43.59°N, 98.44°W
Report Text: KMHE 271253Z AUTO 08006KT 10SM CLR M18/M21 A3047 RMK AO2 SLP351 T11781211
Loading
Personal Weather Stations






























Interactive Weather Map New forecast layout! Learn more

10-Day Weather Forecast

Advertisements
Track Severe Weather on mobile